Time;durP1;ratioP1;P1;durP2;ratioP2;P2;SDS_P1;SDS_P2;PMS_P1;PMS_P2;Temp;Humidity;BMP_temperature;BMP_pressure;BME280_temperature;BME280_humidity;BME280_pressure;Samples;Min_cycle;Max_cycle;Signal;HPM_P1;HPM_P2
2023/06/10 00:01:41;;;;;;;11.38;6.15;;;19.00;99.90;;;;;;5035764;28;20113;-70
2023/06/10 00:04:07;;;;;;;13.43;6.80;;;18.40;99.90;;;;;;5035676;28;20043;-69
2023/06/10 00:06:35;;;;;;;14.95;8.05;;;19.30;99.90;;;;;;5035295;28;20041;-70
2023/06/10 00:09:04;;;;;;;11.07;6.90;;;18.30;99.90;;;;;;5018564;28;20041;-70
2023/06/10 00:11:30;;;;;;;9.68;6.00;;;18.80;99.90;;;;;;5035292;28;20048;-69
2023/06/10 00:13:56;;;;;;;8.13;6.03;;;19.10;99.90;;;;;;5035556;28;20044;-70
2023/06/10 00:16:21;;;;;;;10.85;5.53;;;18.00;99.90;;;;;;5052721;28;20029;-69
2023/06/10 00:18:48;;;;;;;8.52;5.15;;;18.30;99.90;;;;;;5052943;28;20044;-70
2023/06/10 00:21:14;;;;;;;12.95;5.35;;;19.10;99.90;;;;;;5035804;28;20055;-69
2023/06/10 00:23:41;;;;;;;8.50;5.63;;;18.50;99.90;;;;;;5053092;28;20033;-69
2023/06/10 00:26:06;;;;;;;10.32;5.03;;;18.30;99.90;;;;;;5034796;28;20423;-69
2023/06/10 00:28:32;;;;;;;7.55;5.80;;;18.40;99.90;;;;;;5017732;28;20127;-70
2023/06/10 00:30:58;;;;;;;9.75;5.05;;;18.10;99.90;;;;;;5052501;28;20036;-70
2023/06/10 00:33:23;;;;;;;9.63;5.38;;;18.20;99.90;;;;;;5035141;28;20037;-69
2023/06/10 00:35:49;;;;;;;11.05;5.40;;;18.00;99.90;;;;;;5034169;28;20116;-69
2023/06/10 00:38:14;;;;;;;6.38;4.40;;;18.20;99.90;;;;;;5034784;28;20086;-69
2023/06/10 00:40:41;;;;;;;10.80;5.05;;;19.20;99.90;;;;;;5035084;28;20531;-70
2023/06/10 00:43:07;;;;;;;12.68;5.57;;;18.10;99.90;;;;;;5035157;28;20532;-70
2023/06/10 00:45:33;;;;;;;9.38;5.07;;;18.60;99.90;;;;;;5034405;28;20077;-70
2023/06/10 00:48:00;;;;;;;9.13;5.55;;;18.00;99.90;;;;;;5034633;28;20078;-70
2023/06/10 00:50:26;;;;;;;10.48;5.43;;;18.20;99.90;;;;;;5035142;28;20075;-69
2023/06/10 00:52:52;;;;;;;11.68;5.55;;;18.20;99.90;;;;;;5034648;28;20076;-70
2023/06/10 00:55:19;;;;;;;11.48;6.03;;;18.00;99.90;;;;;;5034386;28;20041;-70
2023/06/10 00:57:46;;;;;;;10.18;5.13;;;17.80;99.90;;;;;;5018267;28;20049;-69
2023/06/10 01:00:13;;;;;;;9.07;5.78;;;17.90;99.90;;;;;;5034643;28;20055;-69
2023/06/10 01:02:38;;;;;;;11.77;5.55;;;17.90;99.90;;;;;;5034569;28;20083;-69
2023/06/10 01:05:05;;;;;;;9.25;5.57;;;18.20;99.90;;;;;;5034301;28;20076;-70
2023/06/10 01:07:47;;;;;;;10.52;5.22;;;17.10;99.90;;;;;;5034249;28;20514;-69
2023/06/10 01:10:50;;;;;;;10.90;6.10;;;18.40;99.90;;;;;;5034591;28;20124;-69
2023/06/10 01:13:16;;;;;;;10.18;5.35;;;17.80;99.90;;;;;;5034604;28;20479;-70
2023/06/10 01:15:42;;;;;;;10.40;5.55;;;17.80;99.90;;;;;;5033808;28;20416;-69
2023/06/10 01:18:10;;;;;;;10.95;5.53;;;17.90;99.90;;;;;;5034409;28;20459;-69
2023/06/10 01:20:40;;;;;;;11.95;5.57;;;17.80;99.90;;;;;;5018191;28;20048;-70
2023/06/10 01:23:06;;;;;;;8.63;5.43;;;17.60;99.90;;;;;;5033898;28;20041;-69
2023/06/10 01:25:36;;;;;;;9.85;6.03;;;17.50;99.90;;;;;;5032260;28;20049;-69
2023/06/10 01:28:21;;;;;;;12.73;5.43;;;17.60;99.90;;;;;;5033672;28;20060;-69
2023/06/10 01:31:11;;;;;;;10.68;5.28;;;17.40;99.90;;;;;;5034190;28;20041;-69
2023/06/10 01:33:41;;;;;;;10.55;5.88;;;17.50;99.90;;;;;;5034360;28;20449;-70
2023/06/10 01:36:08;;;;;;;9.23;5.32;;;17.50;99.90;;;;;;5033242;28;20072;-69
2023/06/10 01:38:39;;;;;;;9.93;6.20;;;18.00;99.90;;;;;;5032741;28;20098;-69
2023/06/10 01:41:06;;;;;;;9.23;5.28;;;17.50;99.90;;;;;;5033898;28;20040;-70
2023/06/10 01:43:37;;;;;;;9.38;5.32;;;17.40;99.90;;;;;;5034025;28;20052;-69
2023/06/10 01:46:03;;;;;;;9.63;5.43;;;;;;;;;;5033438;28;20048;-69
2023/06/10 01:48:29;;;;;;;12.32;5.97;;;;;;;;;;5033592;28;20090;-69
2023/06/10 01:50:55;;;;;;;12.07;5.78;;;;;;;;;;5033926;28;20041;-70
2023/06/10 01:53:22;;;;;;;9.35;5.30;;;;;;;;;;5033839;28;20045;-70
2023/06/10 01:55:48;;;;;;;10.32;5.43;;;17.40;99.90;;;;;;5016796;28;20068;-69
2023/06/10 01:58:13;;;;;;;11.55;5.82;;;17.10;99.90;;;;;;5033703;28;20080;-69
2023/06/10 02:00:39;;;;;;;18.60;6.88;;;17.20;99.90;;;;;;5017328;28;20107;-69
2023/06/10 02:03:05;;;;;;;12.48;5.72;;;17.10;99.90;;;;;;5033787;28;20405;-69
2023/06/10 02:05:31;;;;;;;8.50;6.22;;;17.10;99.90;;;;;;5033165;28;20044;-69
2023/06/10 02:07:56;;;;;;;8.63;5.72;;;17.10;99.90;;;;;;5033247;28;20083;-69
2023/06/10 02:10:22;;;;;;;12.82;6.13;;;17.00;99.90;;;;;;5051626;28;20060;-70
2023/06/10 02:12:48;;;;;;;12.63;5.90;;;16.80;99.90;;;;;;5017201;28;20032;-69
2023/06/10 02:15:13;;;;;;;9.27;6.07;;;17.00;99.90;;;;;;5033137;28;20043;-69
2023/06/10 02:17:39;;;;;;;8.57;6.05;;;16.90;99.90;;;;;;5016881;28;20509;-68
2023/06/10 02:20:06;;;;;;;10.38;5.72;;;16.90;99.90;;;;;;5033531;28;20136;-69
2023/06/10 02:22:32;;;;;;;8.75;5.75;;;16.90;99.90;;;;;;5033388;28;20045;-69
2023/06/10 02:24:58;;;;;;;8.90;5.53;;;16.80;99.90;;;;;;5033083;28;20068;-69
2023/06/10 02:27:24;;;;;;;11.50;6.07;;;;;;;;;;5050919;28;20409;-68
2023/06/10 02:29:50;;;;;;;13.50;5.78;;;16.70;99.90;;;;;;5033471;28;20040;-69
2023/06/10 02:32:16;;;;;;;9.38;5.70;;;16.70;99.90;;;;;;5033567;28;20040;-69
2023/06/10 02:34:42;;;;;;;10.88;5.25;;;16.80;99.90;;;;;;5035175;28;20033;-70
2023/06/10 02:37:08;;;;;;;11.98;6.05;;;;;;;;;;5037801;28;20041;-69
2023/06/10 02:39:34;;;;;;;15.00;6.20;;;16.60;99.90;;;;;;5020717;28;20041;-69
2023/06/10 02:42:00;;;;;;;10.38;6.10;;;16.60;99.90;;;;;;5037271;28;20504;-69
2023/06/10 02:44:25;;;;;;;10.05;5.95;;;16.40;99.90;;;;;;5037248;28;20132;-69
2023/06/10 02:46:51;;;;;;;11.85;5.93;;;16.60;99.90;;;;;;5036788;28;20044;-69
2023/06/10 02:49:16;;;;;;;13.90;7.00;;;16.60;99.90;;;;;;5036809;28;20037;-69
2023/06/10 02:51:42;;;;;;;10.77;6.50;;;16.50;99.90;;;;;;5054901;28;20033;-69
2023/06/10 02:54:08;;;;;;;11.43;6.75;;;16.60;99.90;;;;;;5037048;28;20412;-69
2023/06/10 02:56:33;;;;;;;9.52;6.22;;;16.40;99.90;;;;;;5054344;28;20128;-69
2023/06/10 02:59:00;;;;;;;13.63;6.85;;;16.40;99.90;;;;;;5036700;28;20048;-69
2023/06/10 03:01:25;;;;;;;11.02;5.95;;;16.40;99.90;;;;;;5036969;28;20088;-69
2023/06/10 03:03:52;;;;;;;11.07;6.43;;;16.40;99.90;;;;;;5036842;28;20072;-69
2023/06/10 03:06:18;;;;;;;11.00;6.45;;;16.30;99.90;;;;;;5036404;28;20048;-69
2023/06/10 03:08:45;;;;;;;11.25;7.63;;;16.40;99.90;;;;;;5036267;28;20037;-69
2023/06/10 03:11:11;;;;;;;11.10;6.35;;;16.50;99.90;;;;;;5036789;28;20041;-69
2023/06/10 03:13:38;;;;;;;12.35;7.60;;;16.40;99.90;;;;;;5036343;28;20166;-69
2023/06/10 03:16:04;;;;;;;14.48;6.95;;;16.30;99.90;;;;;;5019440;28;20044;-69
2023/06/10 03:18:30;;;;;;;12.05;6.60;;;;;;;;;;5036433;28;20049;-69
2023/06/10 03:20:56;;;;;;;8.65;6.85;;;16.30;99.90;;;;;;5054430;28;20098;-69
2023/06/10 03:23:23;;;;;;;12.10;7.18;;;16.30;99.90;;;;;;5036491;28;20083;-69
2023/06/10 03:25:48;;;;;;;11.15;6.00;;;16.20;99.90;;;;;;5035934;28;20522;-69
2023/06/10 03:28:14;;;;;;;12.68;6.90;;;16.20;99.90;;;;;;5036157;28;20037;-69
2023/06/10 03:30:40;;;;;;;12.23;6.25;;;;;;;;;;5054311;28;20040;-69
2023/06/10 03:33:06;;;;;;;11.82;6.20;;;16.20;99.90;;;;;;5036944;28;20044;-69
2023/06/10 03:35:32;;;;;;;8.10;5.45;;;16.20;99.90;;;;;;5055349;28;20564;-70
2023/06/10 03:37:58;;;;;;;10.57;6.68;;;16.20;99.90;;;;;;5037465;28;20123;-69
2023/06/10 03:40:24;;;;;;;9.82;5.88;;;16.20;99.90;;;;;;5036796;28;20049;-69
2023/06/10 03:42:50;;;;;;;9.88;5.63;;;16.10;99.90;;;;;;5036130;28;20044;-69
2023/06/10 03:45:16;;;;;;;6.80;5.18;;;16.10;99.90;;;;;;5018664;28;20459;-69
2023/06/10 03:47:42;;;;;;;8.05;5.35;;;16.10;99.90;;;;;;5019356;28;20056;-69
2023/06/10 03:50:09;;;;;;;11.05;5.05;;;16.20;99.90;;;;;;5036078;28;20036;-69
2023/06/10 03:52:36;;;;;;;9.27;5.35;;;16.00;99.90;;;;;;5035861;28;20052;-69
2023/06/10 03:55:01;;;;;;;9.70;6.22;;;16.00;99.90;;;;;;5019013;28;20409;-69
2023/06/10 03:57:27;;;;;;;10.95;5.28;;;16.10;99.90;;;;;;5035656;28;20037;-69
2023/06/10 03:59:55;;;;;;;8.32;4.78;;;16.10;99.90;;;;;;5035893;28;20600;-69
2023/06/10 04:02:21;;;;;;;10.38;5.20;;;15.90;99.90;;;;;;5019485;28;20036;-69
2023/06/10 04:04:46;;;;;;;11.00;5.00;;;16.00;99.90;;;;;;5035510;28;20053;-69
2023/06/10 04:07:12;;;;;;;11.15;6.18;;;16.00;99.90;;;;;;5035598;28;20044;-69
2023/06/10 04:09:38;;;;;;;9.93;5.03;;;16.20;99.90;;;;;;5035569;28;20044;-69
2023/06/10 04:12:08;;;;;;;11.07;5.35;;;16.00;99.90;;;;;;5035615;28;20041;-69
2023/06/10 04:14:35;;;;;;;7.97;4.97;;;15.90;99.90;;;;;;5035400;28;20048;-69
2023/06/10 04:17:01;;;;;;;10.15;4.70;;;16.10;99.90;;;;;;5035717;28;20041;-69
2023/06/10 04:19:28;;;;;;;12.00;5.45;;;16.00;99.90;;;;;;5035260;28;20044;-70
2023/06/10 04:21:53;;;;;;;9.10;4.82;;;15.90;99.90;;;;;;5035465;28;20508;-69
2023/06/10 04:24:19;;;;;;;8.88;5.70;;;16.10;99.90;;;;;;5035325;28;20079;-69
2023/06/10 04:26:45;;;;;;;8.35;5.05;;;16.20;99.90;;;;;;5035129;28;20040;-69
2023/06/10 04:29:11;;;;;;;8.40;4.68;;;;;;;;;;5034444;28;20515;-69
2023/06/10 04:31:36;;;;;;;9.57;4.88;;;16.00;99.90;;;;;;5033806;28;20037;-69
2023/06/10 04:34:02;;;;;;;10.23;5.13;;;16.10;99.90;;;;;;5034768;28;20083;-69
2023/06/10 04:36:29;;;;;;;10.02;5.18;;;16.00;99.90;;;;;;5052505;28;20032;-69
2023/06/10 04:38:54;;;;;;;7.78;4.85;;;16.10;99.90;;;;;;5034797;28;20462;-68
2023/06/10 04:41:20;;;;;;;10.23;5.65;;;16.20;99.90;;;;;;5034999;28;20131;-69
2023/06/10 04:43:46;;;;;;;8.43;5.30;;;16.10;99.90;;;;;;5035039;28;20130;-69
2023/06/10 04:46:13;;;;;;;11.82;5.35;;;16.20;99.90;;;;;;5017809;28;20059;-69
2023/06/10 04:48:38;;;;;;;9.32;5.18;;;16.20;99.90;;;;;;5018252;28;20037;-69
2023/06/10 04:51:05;;;;;;;12.40;5.35;;;16.20;99.90;;;;;;5034602;28;20036;-69
2023/06/10 04:53:31;;;;;;;12.38;5.60;;;16.20;99.90;;;;;;5034847;28;20393;-69
2023/06/10 04:55:57;;;;;;;10.35;4.90;;;16.30;99.90;;;;;;5033691;28;20465;-69
2023/06/10 04:58:23;;;;;;;12.88;5.95;;;16.40;99.90;;;;;;5034188;28;20459;-69
2023/06/10 05:00:49;;;;;;;11.00;5.30;;;16.60;99.90;;;;;;5034597;28;20070;-69
2023/06/10 05:03:14;;;;;;;13.60;5.88;;;16.50;99.90;;;;;;5034576;28;20412;-69
2023/06/10 05:05:40;;;;;;;10.05;6.18;;;16.40;99.90;;;;;;5034226;28;20041;-68
2023/06/10 05:08:06;;;;;;;11.68;6.00;;;16.50;99.90;;;;;;5034126;28;20045;-69
2023/06/10 05:10:31;;;;;;;9.88;5.85;;;16.40;99.90;;;;;;5034601;28;20033;-69
2023/06/10 05:12:58;;;;;;;12.20;5.97;;;16.50;99.90;;;;;;5034641;28;20128;-69
2023/06/10 05:15:24;;;;;;;16.45;6.30;;;16.60;99.90;;;;;;5034155;28;20067;-69
2023/06/10 05:17:50;;;;;;;12.45;5.63;;;16.50;99.90;;;;;;5017972;28;20516;-69
2023/06/10 05:20:15;;;;;;;9.25;6.43;;;16.70;99.90;;;;;;5034566;28;20048;-70
2023/06/10 05:22:41;;;;;;;11.20;6.00;;;16.70;99.90;;;;;;5034215;28;20041;-69
2023/06/10 05:25:07;;;;;;;13.73;6.35;;;16.70;99.90;;;;;;5034127;28;20037;-69
2023/06/10 05:27:32;;;;;;;12.98;6.07;;;16.80;99.90;;;;;;5033835;28;20072;-69
2023/06/10 05:29:59;;;;;;;13.10;5.50;;;17.00;99.90;;;;;;5034073;28;20073;-69
2023/06/10 05:32:24;;;;;;;12.50;5.30;;;16.90;99.90;;;;;;5034099;28;20045;-69
2023/06/10 05:34:50;;;;;;;10.45;5.60;;;17.10;99.90;;;;;;5051571;28;20040;-69
2023/06/10 05:37:15;;;;;;;12.23;5.28;;;17.00;99.90;;;;;;5033942;28;20492;-69
2023/06/10 05:39:41;;;;;;;8.65;4.85;;;17.30;99.90;;;;;;5051894;28;20032;-69
2023/06/10 05:42:07;;;;;;;11.32;5.07;;;17.20;99.90;;;;;;5034067;28;20048;-69
2023/06/10 05:44:33;;;;;;;10.20;5.00;;;17.30;99.90;;;;;;5033399;28;20037;-69
2023/06/10 05:46:59;;;;;;;10.48;5.18;;;17.30;99.90;;;;;;5034035;28;20041;-70
2023/06/10 05:49:24;;;;;;;13.40;5.30;;;17.40;99.90;;;;;;5017032;28;20497;-70
2023/06/10 05:51:52;;;;;;;9.80;5.63;;;17.50;99.90;;;;;;5034015;28;20116;-69
2023/06/10 05:54:18;;;;;;;12.07;5.10;;;17.40;99.90;;;;;;5034162;28;20041;-69
2023/06/10 05:56:44;;;;;;;11.65;5.32;;;17.60;99.90;;;;;;5033400;28;20555;-70
2023/06/10 05:59:09;;;;;;;13.27;5.80;;;17.70;99.90;;;;;;5033491;28;20091;-69
2023/06/10 06:01:35;;;;;;;10.13;4.82;;;18.80;99.90;;;;;;5034108;28;20041;-69
2023/06/10 06:04:00;;;;;;;14.45;5.35;;;17.80;99.90;;;;;;5033983;28;20044;-70
2023/06/10 06:06:26;;;;;;;7.55;4.45;;;18.00;99.90;;;;;;5033217;28;20075;-70
2023/06/10 06:08:52;;;;;;;19.02;5.43;;;;;;;;;;5033131;28;20123;-69
2023/06/10 06:11:18;;;;;;;10.05;4.97;;;17.90;99.90;;;;;;5033709;28;20044;-70
2023/06/10 06:13:43;;;;;;;14.00;4.85;;;18.10;99.90;;;;;;5017292;28;20032;-69
2023/06/10 06:16:09;;;;;;;9.88;5.78;;;18.10;99.90;;;;;;5032956;28;20052;-69
2023/06/10 06:18:34;;;;;;;14.77;5.50;;;18.10;99.90;;;;;;5033089;28;20045;-69
2023/06/10 06:21:00;;;;;;;10.43;5.40;;;18.20;99.90;;;;;;5017163;28;20033;-70
2023/06/10 06:23:26;;;;;;;8.63;5.05;;;18.40;99.90;;;;;;5033380;28;20073;-69
2023/06/10 06:25:51;;;;;;;8.93;4.72;;;18.50;99.90;;;;;;5016912;28;20041;-69
2023/06/10 06:28:18;;;;;;;10.80;5.22;;;18.30;99.90;;;;;;5016631;28;20087;-69
2023/06/10 06:30:44;;;;;;;10.45;5.22;;;18.50;99.90;;;;;;5033677;28;20041;-69
2023/06/10 06:33:10;;;;;;;11.40;5.10;;;18.80;99.90;;;;;;5033473;28;20500;-70
2023/06/10 06:35:35;;;;;;;7.40;5.00;;;18.60;99.90;;;;;;5033150;28;20044;-69
2023/06/10 06:38:01;;;;;;;10.70;5.68;;;19.10;99.90;;;;;;5033251;28;20499;-69
2023/06/10 06:40:27;;;;;;;10.50;4.90;;;18.90;99.90;;;;;;5033684;28;20037;-69
2023/06/10 06:42:52;;;;;;;11.73;4.68;;;18.90;99.90;;;;;;5033305;28;20072;-69
2023/06/10 06:45:18;;;;;;;15.15;6.05;;;19.00;99.90;;;;;;5032965;28;20178;-69
2023/06/10 06:47:43;;;;;;;11.57;5.03;;;19.20;99.90;;;;;;5033100;28;20128;-69
2023/06/10 06:50:10;;;;;;;11.45;4.75;;;19.40;99.90;;;;;;5033389;28;20041;-70
2023/06/10 06:52:35;;;;;;;10.07;5.40;;;19.30;99.90;;;;;;5033097;28;20044;-69
2023/06/10 06:55:01;;;;;;;14.60;4.72;;;19.40;99.90;;;;;;5032937;28;20037;-69
2023/06/10 06:57:26;;;;;;;13.32;6.07;;;19.20;99.90;;;;;;5032972;28;20037;-69
2023/06/10 06:59:52;;;;;;;8.18;4.28;;;19.40;99.90;;;;;;5033686;28;20120;-70
2023/06/10 07:02:18;;;;;;;10.57;5.05;;;20.80;99.90;;;;;;5033223;28;20040;-69
2023/06/10 07:04:45;;;;;;;10.10;5.30;;;19.70;99.90;;;;;;5032694;28;20047;-69
2023/06/10 07:07:11;;;;;;;10.15;4.95;;;19.90;99.90;;;;;;5033155;28;20044;-69
2023/06/10 07:09:37;;;;;;;8.02;5.07;;;20.40;99.90;;;;;;5032929;28;20033;-70
2023/06/10 07:12:03;;;;;;;8.38;4.50;;;20.30;99.90;;;;;;5033310;28;20374;-70
2023/06/10 07:14:29;;;;;;;10.05;4.60;;;20.10;99.90;;;;;;5032946;28;20095;-67
2023/06/10 07:16:54;;;;;;;15.45;5.22;;;20.60;99.90;;;;;;5033402;28;20036;-69
2023/06/10 07:19:20;;;;;;;11.73;4.80;;;20.10;99.90;;;;;;5033356;28;20128;-69
2023/06/10 07:21:46;;;;;;;6.88;4.10;;;20.80;99.90;;;;;;5020197;28;20485;-70
2023/06/10 07:24:11;;;;;;;14.50;5.18;;;20.60;99.90;;;;;;5036700;28;20090;-70
2023/06/10 07:26:37;;;;;;;9.65;4.72;;;21.60;99.90;;;;;;5035966;28;20504;-70
2023/06/10 07:29:03;;;;;;;10.38;5.30;;;20.80;99.90;;;;;;5036140;28;20044;-70
2023/06/10 07:31:28;;;;;;;9.20;4.68;;;20.90;99.90;;;;;;5036501;28;20175;-69
2023/06/10 07:33:54;;;;;;;10.93;4.93;;;20.60;99.90;;;;;;5036617;28;20037;-69
2023/06/10 07:36:20;;;;;;;10.13;4.32;;;20.70;99.90;;;;;;5053797;28;20082;-69
2023/06/10 07:38:45;;;;;;;10.90;4.90;;;20.90;99.90;;;;;;5053995;28;20160;-69
2023/06/10 07:41:11;;;;;;;11.38;4.80;;;20.80;99.90;;;;;;5053983;28;20040;-69
2023/06/10 07:43:38;;;;;;;9.88;4.90;;;21.00;99.90;;;;;;5036285;28;20048;-70
2023/06/10 07:46:05;;;;;;;13.32;5.65;;;21.90;99.90;;;;;;5035723;28;20052;-69
2023/06/10 07:48:31;;;;;;;9.02;4.55;;;21.60;99.90;;;;;;5018341;28;20033;-69
2023/06/10 07:50:56;;;;;;;10.30;4.57;;;20.90;99.90;;;;;;5030667;28;20035;-69
2023/06/10 07:53:22;;;;;;;9.52;4.82;;;22.00;99.90;;;;;;5027879;28;20041;-69
2023/06/10 07:55:47;;;;;;;9.13;4.30;;;21.10;99.90;;;;;;5030520;28;20032;-69
2023/06/10 07:58:13;;;;;;;12.80;5.30;;;21.80;99.90;;;;;;5015770;28;20465;-70
2023/06/10 08:00:38;;;;;;;10.20;4.70;;;21.30;99.90;;;;;;5015855;28;20554;-69
2023/06/10 08:03:04;;;;;;;6.95;4.03;;;21.80;99.90;;;;;;5031913;28;20116;-68
2023/06/10 08:05:30;;;;;;;6.53;3.97;;;21.50;99.90;;;;;;5032863;28;20554;-69
2023/06/10 08:07:56;;;;;;;7.30;4.22;;;21.70;99.90;;;;;;5018461;28;20040;-69
2023/06/10 08:10:21;;;;;;;7.82;4.90;;;21.40;99.90;;;;;;5052907;28;20028;-69
2023/06/10 08:12:47;;;;;;;8.52;4.43;;;21.90;99.90;;;;;;5019145;28;20048;-70
2023/06/10 08:15:12;;;;;;;7.45;4.03;;;22.00;99.90;;;;;;5018871;28;20029;-70
2023/06/10 08:17:39;;;;;;;8.63;3.65;;;21.80;99.90;;;;;;5035200;28;20044;-69
2023/06/10 08:20:06;;;;;;;7.60;4.53;;;22.10;99.90;;;;;;5036475;28;20033;-69
2023/06/10 08:22:31;;;;;;;5.97;3.63;;;22.10;99.90;;;;;;5036433;28;20045;-69
2023/06/10 08:24:57;;;;;;;8.35;3.72;;;22.20;99.90;;;;;;5019567;28;20043;-70
2023/06/10 08:27:22;;;;;;;6.50;4.18;;;21.90;99.90;;;;;;5035128;28;20040;-69
2023/06/10 08:29:48;;;;;;;6.88;3.88;;;23.00;99.90;;;;;;5035050;28;20060;-69
2023/06/10 08:32:14;;;;;;;6.72;3.60;;;23.00;99.90;;;;;;5032377;28;20029;-70
2023/06/10 08:34:39;;;;;;;6.60;3.67;;;22.10;99.90;;;;;;5033434;28;20036;-69
2023/06/10 08:37:06;;;;;;;6.28;3.90;;;22.30;99.90;;;;;;5032179;28;20033;-70
2023/06/10 08:39:32;;;;;;;7.15;3.78;;;22.40;99.90;;;;;;5011623;28;20051;-70
2023/06/10 08:42:17;;;;;;;10.05;3.42;;;22.40;99.90;;;;;;5023072;28;20049;-68
2023/06/10 08:44:45;;;;;;;5.95;3.55;;;22.40;99.90;;;;;;5016645;28;20530;-70
2023/06/10 08:47:16;;;;;;;10.20;4.60;;;22.70;99.90;;;;;;5002143;28;20060;-69
2023/06/10 08:49:45;;;;;;;7.53;3.60;;;23.00;99.90;;;;;;5016758;28;20042;-70
2023/06/10 08:52:17;;;;;;;10.65;4.43;;;23.00;99.90;;;;;;5014141;28;20037;-69
2023/06/10 08:54:57;;;;;;;8.90;3.65;;;22.90;99.90;;;;;;5016106;28;20052;-69
2023/06/10 08:57:22;;;;;;;9.25;3.53;;;23.10;99.90;;;;;;5023455;28;20132;-69
2023/06/10 08:59:49;;;;;;;10.90;4.82;;;22.90;99.90;;;;;;5017679;28;20124;-69
2023/06/10 09:02:15;;;;;;;8.15;3.80;;;23.00;99.90;;;;;;5014989;28;20124;-70
2023/06/10 09:04:45;;;;;;;7.57;3.90;;;23.30;99.90;;;;;;5016698;28;20041;-69
2023/06/10 09:07:14;;;;;;;6.85;3.95;;;23.40;99.90;;;;;;5000567;28;20041;-69
2023/06/10 09:09:41;;;;;;;7.63;4.22;;;23.20;99.90;;;;;;5039594;28;20479;-70
2023/06/10 09:12:07;;;;;;;7.40;3.83;;;23.40;99.90;;;;;;5020805;28;20039;-69
2023/06/10 09:14:33;;;;;;;5.75;3.80;;;23.60;99.90;;;;;;5006336;28;20405;-68
2023/06/10 09:16:58;;;;;;;8.60;4.13;;;23.20;99.90;;;;;;5031771;28;20484;-69
2023/06/10 09:19:26;;;;;;;6.95;4.53;;;23.30;99.90;;;;;;5035007;28;20039;-69
2023/06/10 09:21:52;;;;;;;6.80;3.70;;;23.40;99.90;;;;;;5038373;28;20039;-68
2023/06/10 09:24:18;;;;;;;5.15;3.35;;;23.50;99.80;;;;;;5023437;28;20485;-70
2023/06/10 09:26:45;;;;;;;5.82;3.75;;;24.70;99.90;;;;;;5031043;28;20033;-70
2023/06/10 09:29:11;;;;;;;7.28;3.78;;;23.80;99.90;;;;;;5032708;28;20041;-69
2023/06/10 09:31:39;;;;;;;9.70;4.03;;;23.70;99.90;;;;;;5033471;28;20041;-70
2023/06/10 09:34:13;;;;;;;7.05;3.65;;;24.20;99.90;;;;;;5033573;28;20039;-70
2023/06/10 09:36:40;;;;;;;6.47;3.92;;;23.80;99.50;;;;;;5025062;28;20450;-70
2023/06/10 09:39:17;;;;;;;7.45;3.95;;;24.60;99.90;;;;;;5032076;28;20076;-71
2023/06/10 09:41:45;;;;;;;6.45;3.40;;;23.80;99.70;;;;;;5034282;28;20570;-71
2023/06/10 09:44:19;;;;;;;5.93;3.05;;;24.00;99.40;;;;;;5033278;28;20072;-71
2023/06/10 09:46:50;;;;;;;7.38;3.75;;;24.00;98.60;;;;;;5033437;28;20040;-71
2023/06/10 09:49:19;;;;;;;5.25;2.80;;;24.70;99.10;;;;;;5033547;28;20143;-70
2023/06/10 09:51:54;;;;;;;6.05;3.13;;;24.50;96.60;;;;;;5051390;28;20588;-70
2023/06/10 09:54:21;;;;;;;5.00;3.10;;;24.40;97.30;;;;;;5051441;28;20412;-71
2023/06/10 09:56:51;;;;;;;5.25;3.97;;;24.40;97.60;;;;;;5051137;28;20045;-71
2023/06/10 09:59:29;;;;;;;7.00;3.35;;;24.20;98.50;;;;;;5051327;28;20126;-71
2023/06/10 10:01:56;;;;;;;6.68;3.90;;;24.50;97.10;;;;;;5051496;28;20060;-70
2023/06/10 10:04:25;;;;;;;10.20;3.88;;;24.80;97.70;;;;;;5033860;28;20040;-71
2023/06/10 10:06:51;;;;;;;5.45;3.03;;;24.60;97.90;;;;;;5032860;28;20690;-71
2023/06/10 10:09:16;;;;;;;5.18;2.58;;;25.00;97.40;;;;;;5051027;28;20039;-71
2023/06/10 10:11:43;;;;;;;7.00;3.50;;;24.90;96.70;;;;;;5033785;28;20443;-71
2023/06/10 10:14:09;;;;;;;6.70;3.30;;;25.00;96.40;;;;;;5033732;28;20046;-71
2023/06/10 10:16:41;;;;;;;6.30;2.97;;;25.20;97.70;;;;;;5032678;28;20576;-71
2023/06/10 10:19:11;;;;;;;4.43;3.43;;;24.90;97.30;;;;;;5016501;28;20045;-71
2023/06/10 10:21:44;;;;;;;6.80;3.00;;;25.10;98.00;;;;;;5051242;28;20049;-71
2023/06/10 10:24:17;;;;;;;4.95;3.00;;;25.20;97.60;;;;;;5051410;28;20045;-71
2023/06/10 10:26:43;;;;;;;3.75;2.90;;;25.50;97.20;;;;;;5050944;28;20036;-70
2023/06/10 10:29:33;;;;;;;4.40;2.92;;;25.50;96.60;;;;;;5028880;28;20045;-71
2023/06/10 10:32:00;;;;;;;7.32;3.47;;;25.40;95.50;;;;;;5033397;28;20404;-71
2023/06/10 10:34:46;;;;;;;6.57;2.92;;;25.60;96.20;;;;;;5051068;28;20508;-71
2023/06/10 10:37:12;;;;;;;5.05;3.38;;;25.60;96.50;;;;;;5032302;28;20033;-71
2023/06/10 10:39:37;;;;;;;5.72;2.72;;;25.50;96.40;;;;;;5029876;28;20044;-71
2023/06/10 10:42:05;;;;;;;4.50;2.72;;;25.80;96.20;;;;;;5030072;28;20041;-72
2023/06/10 10:44:31;;;;;;;6.80;3.00;;;25.70;96.20;;;;;;5027958;28;20466;-68
2023/06/10 10:47:03;;;;;;;5.30;2.97;;;25.80;96.20;;;;;;5029771;28;20452;-72
2023/06/10 10:49:30;;;;;;;8.38;3.67;;;26.00;97.00;;;;;;5030412;28;20054;-73
2023/06/10 10:52:00;;;;;;;5.65;3.30;;;25.60;97.20;;;;;;5030082;28;20038;-71
2023/06/10 10:54:37;;;;;;;5.20;2.80;;;25.60;96.20;;;;;;5011841;28;20120;-72
2023/06/10 10:57:11;;;;;;;5.90;3.30;;;25.80;96.80;;;;;;5015641;28;20036;-73
2023/06/10 10:59:56;;;;;;;4.70;2.70;;;25.90;96.30;;;;;;5016017;28;20088;-72
2023/06/10 11:02:44;;;;;;;5.65;3.40;;;26.00;96.40;;;;;;5034483;28;20675;-73
2023/06/10 11:05:40;;;;;;;4.28;2.78;;;26.10;96.60;;;;;;5033709;28;20715;-73
2023/06/10 11:08:07;;;;;;;5.47;2.60;;;26.20;96.80;;;;;;5033179;28;20038;-71
2023/06/10 11:10:35;;;;;;;6.38;3.35;;;26.30;96.90;;;;;;5033245;28;20497;-71
2023/06/10 11:13:15;;;;;;;7.45;3.47;;;26.20;96.50;;;;;;5035760;28;20037;-72
2023/06/10 11:15:49;;;;;;;5.15;2.97;;;26.50;95.20;;;;;;5035858;28;20056;-71
2023/06/10 11:18:41;;;;;;;9.98;3.75;;;26.30;96.50;;;;;;5035891;28;20566;-71
2023/06/10 11:21:07;;;;;;;8.75;2.83;;;26.50;96.70;;;;;;5036085;28;20044;-70
2023/06/10 11:23:33;;;;;;;8.18;2.72;;;26.60;96.90;;;;;;5036386;28;20037;-71
2023/06/10 11:26:20;;;;;;;4.70;3.28;;;26.90;96.70;;;;;;5018840;28;20029;-71
2023/06/10 11:28:46;;;;;;;4.47;2.83;;;26.60;95.70;;;;;;5035418;28;20495;-71
2023/06/10 11:31:23;;;;;;;6.07;2.83;;;26.70;96.70;;;;;;5022724;28;20116;-71
2023/06/10 11:33:53;;;;;;;6.25;3.40;;;26.80;96.20;;;;;;5022023;28;20053;-70
2023/06/10 11:36:19;;;;;;;5.05;2.83;;;26.60;95.90;;;;;;5030526;28;20497;-70
2023/06/10 11:38:44;;;;;;;6.20;3.00;;;26.40;95.90;;;;;;5009573;28;20043;-71
2023/06/10 11:41:11;;;;;;;4.70;2.72;;;26.70;96.30;;;;;;5022189;28;20531;-71
2023/06/10 11:43:42;;;;;;;5.43;2.22;;;27.00;96.00;;;;;;5017890;28;20421;-72
2023/06/10 11:46:08;;;;;;;4.78;2.28;;;27.00;95.30;;;;;;5032289;28;20041;-71
2023/06/10 11:48:34;;;;;;;5.00;2.58;;;27.00;94.90;;;;;;5020597;28;20041;-69
2023/06/10 11:50:59;;;;;;;7.60;3.13;;;27.10;94.50;;;;;;5000757;28;20033;-70
2023/06/10 11:53:25;;;;;;;5.82;2.67;;;29.20;94.60;;;;;;5035372;28;20036;-72
2023/06/10 11:55:51;;;;;;;5.15;3.20;;;27.40;94.90;;;;;;5016518;28;20056;-71
2023/06/10 11:58:22;;;;;;;5.00;3.63;;;27.40;95.60;;;;;;5022770;28;20519;-71
2023/06/10 12:01:01;;;;;;;5.45;3.20;;;27.10;94.70;;;;;;5018324;28;20040;-72
2023/06/10 12:03:27;;;;;;;6.82;2.97;;;27.00;94.70;;;;;;5017811;28;20050;-72
2023/06/10 12:06:00;;;;;;;6.30;3.40;;;27.10;94.70;;;;;;5021104;28;20043;-70
2023/06/10 12:08:27;;;;;;;7.60;3.28;;;26.70;95.10;;;;;;5035651;28;20087;-72
2023/06/10 12:10:53;;;;;;;6.05;3.00;;;27.00;95.20;;;;;;5012707;28;20060;-72
2023/06/10 12:13:19;;;;;;;8.48;2.63;;;27.20;94.70;;;;;;5026453;28;20485;-72
2023/06/10 12:15:45;;;;;;;7.30;2.53;;;27.40;94.90;;;;;;5017201;28;20091;-72
2023/06/10 12:18:21;;;;;;;7.03;3.47;;;27.60;94.80;;;;;;5034491;28;20041;-72
2023/06/10 12:20:48;;;;;;;5.25;2.38;;;27.50;94.20;;;;;;5033485;28;20059;-72
2023/06/10 12:23:14;;;;;;;6.95;2.60;;;27.40;94.90;;;;;;5034927;28;20099;-72
2023/06/10 12:25:51;;;;;;;6.28;2.83;;;28.70;95.90;;;;;;5021409;28;20600;-72
2023/06/10 12:28:18;;;;;;;6.68;3.30;;;27.80;94.50;;;;;;5017729;28;20491;-72
2023/06/10 12:30:44;;;;;;;5.35;2.63;;;28.80;94.20;;;;;;5034611;28;20033;-72
2023/06/10 12:33:20;;;;;;;6.90;2.85;;;27.60;94.20;;;;;;5034872;28;20041;-72
2023/06/10 12:35:52;;;;;;;6.45;3.35;;;27.80;94.60;;;;;;5032562;28;20562;-72
2023/06/10 12:38:29;;;;;;;8.23;3.72;;;28.30;94.80;;;;;;5031693;28;20086;-73
2023/06/10 12:41:03;;;;;;;7.00;3.20;;;27.50;94.70;;;;;;5035227;28;20037;-72
2023/06/10 12:43:31;;;;;;;6.50;3.20;;;28.10;94.70;;;;;;5038410;28;20059;-72
2023/06/10 12:46:09;;;;;;;6.85;3.00;;;27.70;94.30;;;;;;5031448;28;20056;-72
2023/06/10 12:48:35;;;;;;;7.65;3.10;;;27.40;94.60;;;;;;5033397;28;20049;-72